Uvalde Research's Hourly Summary for Thursday, April 20, 2017
Hour Temp
(f)
RH
(%)
Solar Rad.
(MJ/m2)
Rainfall
(in)
Wind
(mph)
4/20/2017 12:00 AM 68 86 0 0 2.38
4/20/2017 1:00 AM 67 89 0 0 1.85
4/20/2017 2:00 AM 66 92 0 0 1.69
4/20/2017 3:00 AM 65 94 0 0 1.03
4/20/2017 4:00 AM 64 96 0 0 0.34
4/20/2017 5:00 AM 65 98 0 0 1.77
4/20/2017 6:00 AM 66 98 0 0 2.17
4/20/2017 7:00 AM 66 98 0.09 0 2.34
4/20/2017 8:00 AM 67 98 0.33 0 2.79
4/20/2017 9:00 AM 69 93 1.08 0 2.54
4/20/2017 10:00 AM 73 79 1.84 0 2.51
4/20/2017 11:00 AM 76 70 2.59 0 2.99
4/20/2017 12:00 PM 79 65 2.84 0 3.29
4/20/2017 1:00 PM 82 60 2.67 0 3.05
4/20/2017 2:00 PM 83 56 2.43 0 3.26
4/20/2017 3:00 PM 84 54 2.3 0 3.65
4/20/2017 4:00 PM 85 51 2.21 0 3.85
4/20/2017 5:00 PM 86 48 1.56 0 4.27
4/20/2017 6:00 PM 85 49 0.85 0 4.03
4/20/2017 7:00 PM 82 56 0.18 0 3.11
4/20/2017 8:00 PM 78 64 0 0 2.19
4/20/2017 9:00 PM 76 69 0 0 3.1
4/20/2017 10:00 PM 74 78 0 0 3.77
4/20/2017 11:00 PM 73 83 0 0 3.73
Data Summary 74 76 20.97 0.00 2.74